Time;durP1;ratioP1;P1;durP2;ratioP2;P2;SDS_P1;SDS_P2;PMS_P1;PMS_P2;Temp;Humidity;BMP_temperature;BMP_pressure;BME280_temperature;BME280_humidity;BME280_pressure;Samples;Min_cycle;Max_cycle;Signal;HPM_P1;HPM_P2
2022/02/06 00:00:04;;;;;;;;;0.00;0.00;;;;;;;;5079192;27;45488;-71
2022/02/06 00:02:34;;;;;;;;;1.00;1.00;;;;;;;;5081318;27;45468;-71
2022/02/06 00:05:00;;;;;;;;;0.00;0.00;;;;;;;;5092875;27;45507;-71
2022/02/06 00:07:25;;;;;;;;;0.25;0.25;;;;;;;;5067886;27;45586;-72
2022/02/06 00:09:51;;;;;;;;;1.00;1.00;;;;;;;;5091135;27;45534;-71
2022/02/06 00:12:16;;;;;;;;;1.00;0.00;;;;;;;;5090534;27;45543;-71
2022/02/06 00:14:41;;;;;;;;;1.00;0.25;;;;;;;;5092948;27;45416;-71
2022/02/06 00:17:08;;;;;;;;;0.00;0.00;;;;;;;;5086009;27;45850;-71
2022/02/06 00:19:33;;;;;;;;;1.00;1.00;;;;;;;;5094426;27;45413;-71
2022/02/06 00:22:01;;;;;;;;;0.33;0.33;;;;;;;;5092460;27;46115;-71
2022/02/06 00:24:37;;;;;;;;;1.00;1.00;;;;;;;;5097175;27;45444;-71
2022/02/06 00:27:07;;;;;;;;;0.00;0.00;;;;;;;;5092560;27;45365;-70
2022/02/06 00:29:49;;;;;;;;;0.00;0.00;;;;;;;;5089538;27;45506;-71
2022/02/06 00:32:28;;;;;;;;;1.00;1.00;;;;;;;;5076893;27;45571;-71
2022/02/06 00:35:49;;;;;;;;;0.00;0.00;;;;;;;;5081196;27;45307;-71
2022/02/06 00:40:41;;;;;;;;;1.75;0.75;;;;;;;;5082203;27;45465;-71
2022/02/06 00:43:07;;;;;;;;;2.75;2.00;;;;;;;;5085659;27;47211;-71
2022/02/06 00:45:32;;;;;;;;;1.00;1.00;;;;;;;;5084470;27;45517;-72
2022/02/06 00:47:57;;;;;;;;;2.67;1.00;;;;;;;;5089591;27;45484;-71
2022/02/06 00:50:22;;;;;;;;;0.00;0.00;;;;;;;;5100761;27;45445;-71
2022/02/06 00:53:13;;;;;;;;;0.50;0.50;;;;;;;;5104115;27;46284;-71
2022/02/06 00:55:35;;;;;;;;;0.00;0.00;;;;;;;;5097720;27;45532;-71
2022/02/06 00:58:01;;;;;;;;;1.00;1.00;;;;;;;;5098182;27;45495;-70
2022/02/06 01:00:26;;;;;;;;;0.75;0.75;;;;;;;;5094830;27;45483;-70
2022/02/06 01:02:52;;;;;;;;;0.25;0.25;;;;;;;;5097215;27;45656;-70
2022/02/06 01:05:17;;;;;;;;;0.00;0.00;;;;;;;;5100452;27;45539;-71
2022/02/06 01:07:42;;;;;;;;;1.00;0.50;;;;;;;;5096689;27;45433;-70
2022/02/06 01:10:08;;;;;;;;;1.00;1.00;;;;;;;;5088518;27;45721;-70
2022/02/06 01:12:35;;;;;;;;;1.00;1.00;;;;;;;;5091281;27;45767;-70
2022/02/06 01:18:07;;;;;;;;;1.00;1.00;;;;;;;;5108535;27;45484;-70
2022/02/06 01:20:29;;;;;;;;;0.25;0.00;;;;;;;;5092121;27;45539;-70
2022/02/06 01:23:03;;;;;;;;;0.75;0.75;;;;;;;;5096198;27;47170;-70
2022/02/06 01:25:39;;;;;;;;;2.50;1.50;;;;;;;;5092814;27;45488;-70
2022/02/06 01:28:09;;;;;;;;;2.00;2.00;;;;;;;;5093679;27;45420;-70
2022/02/06 01:33:20;;;;;;;;;2.75;2.00;;;;;;;;5096710;27;46091;-70
2022/02/06 01:36:00;;;;;;;;;0.00;0.00;;;;;;;;5095079;27;45375;-70
2022/02/06 01:38:33;;;;;;;;;3.00;0.75;;;;;;;;5076506;27;45552;-70
2022/02/06 01:41:11;;;;;;;;;0.25;0.25;;;;;;;;5097001;27;45703;-70
2022/02/06 01:43:42;;;;;;;;;0.50;0.50;;;;;;;;5094150;27;45313;-70
2022/02/06 01:46:22;;;;;;;;;0.25;0.25;;;;;;;;5094814;27;45309;-70
2022/02/06 02:15:50;;;;;;;;;1.00;1.00;;;;;;;;5093098;27;46087;-70
2022/02/06 02:48:28;;;;;;;;;0.00;0.00;;;;;;;;5092604;27;45486;-70
2022/02/06 02:50:59;;;;;;;;;0.25;0.25;;;;;;;;5094055;27;45384;-70
2022/02/06 02:53:39;;;;;;;;;1.00;1.00;;;;;;;;5093829;27;45346;-70
2022/02/06 03:01:55;;;;;;;;;0.00;0.00;;;;;;;;5052583;28;45490;-70
2022/02/06 03:04:20;;;;;;;;;1.00;1.00;;;;;;;;5052194;28;45412;-70
2022/02/06 03:06:45;;;;;;;;;1.00;1.00;;;;;;;;5047583;28;45477;-70
2022/02/06 03:09:10;;;;;;;;;0.50;0.50;;;;;;;;5051603;28;45452;-70
2022/02/06 03:11:36;;;;;;;;;1.00;1.00;;;;;;;;5052834;28;45469;-70
2022/02/06 03:14:15;;;;;;;;;1.67;1.00;;;;;;;;5052925;28;45429;-70
2022/02/06 03:17:04;;;;;;;;;1.00;0.75;;;;;;;;5051677;28;45471;-70
2022/02/06 03:19:37;;;;;;;;;3.25;1.75;;;;;;;;5051703;28;45552;-70
2022/02/06 03:22:03;;;;;;;;;1.00;1.00;;;;;;;;5051847;28;45366;-70
2022/02/06 03:24:34;;;;;;;;;0.25;0.25;;;;;;;;5047657;28;45767;-70
2022/02/06 03:27:00;;;;;;;;;0.75;0.75;;;;;;;;5051842;28;45497;-70
2022/02/06 03:29:25;;;;;;;;;0.00;0.00;;;;;;;;5052129;28;45605;-70
2022/02/06 03:31:51;;;;;;;;;0.67;0.67;;;;;;;;5044825;28;45477;-70
2022/02/06 03:34:16;;;;;;;;;0.75;0.75;;;;;;;;5049614;28;45413;-70
2022/02/06 03:36:41;;;;;;;;;1.00;1.00;;;;;;;;5061281;27;46476;-70
2022/02/06 03:39:07;;;;;;;;;0.00;0.00;;;;;;;;5091822;27;45396;-70
2022/02/06 03:41:49;;;;;;;;;0.00;0.00;;;;;;;;5093079;27;45430;-70
2022/02/06 03:44:22;;;;;;;;;0.00;0.00;;;;;;;;5097853;27;45458;-70
2022/02/06 03:47:01;;;;;;;;;0.00;0.00;;;;;;;;5092844;27;45262;-70
2022/02/06 03:49:40;;;;;;;;;2.00;0.00;;;;;;;;5090969;27;45220;-70
2022/02/06 03:52:06;;;;;;;;;0.75;0.75;;;;;;;;5091896;27;45338;-70
2022/02/06 03:54:31;;;;;;;;;1.00;1.00;;;;;;;;5097023;27;45416;-70
2022/02/06 03:56:59;;;;;;;;;1.00;1.00;;;;;;;;5096855;27;46417;-70
2022/02/06 03:59:24;;;;;;;;;0.50;0.50;;;;;;;;5098427;27;45426;-70
2022/02/06 04:01:49;;;;;;;;;0.00;0.00;;;;;;;;5098712;27;45457;-70
2022/02/06 04:04:14;;;;;;;;;0.00;0.00;;;;;;;;5095505;27;45245;-70
2022/02/06 04:06:40;;;;;;;;;1.00;1.00;;;;;;;;5096126;27;47156;-69
2022/02/06 04:09:12;;;;;;;;;0.75;0.75;;;;;;;;5095577;27;45488;-70
2022/02/06 04:11:48;;;;;;;;;2.00;0.50;;;;;;;;5079577;27;45319;-70
2022/02/06 04:16:50;;;;;;;;;1.00;1.00;;;;;;;;5097905;27;45535;-70
2022/02/06 04:19:19;;;;;;;;;2.00;0.50;;;;;;;;5097980;27;45504;-70
2022/02/06 04:21:44;;;;;;;;;0.33;0.33;;;;;;;;5094943;27;45489;-70
2022/02/06 04:24:10;;;;;;;;;1.00;0.25;;;;;;;;5101911;27;45597;-70
2022/02/06 04:26:35;;;;;;;;;1.00;0.00;;;;;;;;5094316;27;45611;-69
2022/02/06 04:29:00;;;;;;;;;0.00;0.00;;;;;;;;5098566;27;45760;-70
2022/02/06 04:31:25;;;;;;;;;0.00;0.00;;;;;;;;5095624;27;45322;-70
2022/02/06 04:33:51;;;;;;;;;0.75;0.75;;;;;;;;5098090;27;45598;-70
2022/02/06 04:36:17;;;;;;;;;1.00;1.00;;;;;;;;5094538;27;45618;-70
2022/02/06 04:41:22;;;;;;;;;0.75;0.75;;;;;;;;5098724;27;45500;-70
2022/02/06 04:44:14;;;;;;;;;0.33;0.33;;;;;;;;5098121;27;45402;-70
2022/02/06 05:26:52;;;;;;;;;0.00;0.00;;;;;;;;5033577;28;45510;-70
2022/02/06 05:29:27;;;;;;;;;0.00;0.00;;;;;;;;5031166;28;46898;-69
2022/02/06 05:34:18;;;;;;;;;0.00;0.00;;;;;;;;5031412;28;45813;-70
2022/02/06 05:36:43;;;;;;;;;0.33;0.33;;;;;;;;5022539;28;45534;-69
2022/02/06 05:39:09;;;;;;;;;0.00;0.00;;;;;;;;5033052;28;45531;-70
2022/02/06 05:41:34;;;;;;;;;1.25;1.00;;;;;;;;5016614;28;45589;-69
2022/02/06 05:43:59;;;;;;;;;0.33;0.33;;;;;;;;5029258;28;45445;-70
2022/02/06 05:46:24;;;;;;;;;0.50;0.00;;;;;;;;5032306;28;45682;-70
2022/02/06 05:48:50;;;;;;;;;0.00;0.00;;;;;;;;5032929;28;45557;-70
2022/02/06 05:51:16;;;;;;;;;0.00;0.00;;;;;;;;5033236;28;45410;-70
2022/02/06 05:53:41;;;;;;;;;0.25;0.25;;;;;;;;5072701;27;45542;-70
2022/02/06 05:56:07;;;;;;;;;1.00;1.00;;;;;;;;5097279;27;45524;-70
2022/02/06 05:58:32;;;;;;;;;2.00;1.00;;;;;;;;5094425;27;46558;-70
2022/02/06 06:00:57;;;;;;;;;2.00;0.75;;;;;;;;5093466;27;45418;-70
2022/02/06 06:03:22;;;;;;;;;0.00;0.00;;;;;;;;5093469;27;45368;-70
2022/02/06 06:05:47;;;;;;;;;1.00;1.00;;;;;;;;5093079;27;45528;-70
2022/02/06 06:08:13;;;;;;;;;0.75;0.75;;;;;;;;5096163;27;50578;-70
2022/02/06 06:10:38;;;;;;;;;0.00;0.00;;;;;;;;5095619;27;45439;-70
2022/02/06 06:13:03;;;;;;;;;0.00;0.00;;;;;;;;5094582;27;45352;-70
2022/02/06 06:15:29;;;;;;;;;1.00;1.00;;;;;;;;5094028;27;45256;-70
2022/02/06 06:17:56;;;;;;;;;1.00;1.00;;;;;;;;5092995;27;46282;-69
2022/02/06 06:20:23;;;;;;;;;0.75;0.50;;;;;;;;5096566;27;45321;-69
2022/02/06 06:22:52;;;;;;;;;0.00;0.00;;;;;;;;5094827;27;45350;-69
2022/02/06 06:25:17;;;;;;;;;0.00;0.00;;;;;;;;5094456;27;45390;-70
2022/02/06 06:27:43;;;;;;;;;0.00;0.00;;;;;;;;5093630;27;46652;-70
2022/02/06 06:30:08;;;;;;;;;1.25;0.00;;;;;;;;5091988;27;45431;-69
2022/02/06 06:32:33;;;;;;;;;2.50;1.00;;;;;;;;5092951;27;45465;-70
2022/02/06 06:35:00;;;;;;;;;0.00;0.00;;;;;;;;5095759;27;45220;-70
2022/02/06 06:37:25;;;;;;;;;0.33;0.33;;;;;;;;5092692;27;45397;-70
2022/02/06 06:39:51;;;;;;;;;1.75;1.00;;;;;;;;5092824;27;45540;-69
2022/02/06 06:42:17;;;;;;;;;0.00;0.00;;;;;;;;5091710;27;45413;-69
2022/02/06 06:44:43;;;;;;;;;0.00;0.00;;;;;;;;5092933;27;45465;-70
2022/02/06 06:47:08;;;;;;;;;0.50;0.50;;;;;;;;5076732;27;46697;-70
2022/02/06 06:49:34;;;;;;;;;0.00;0.00;;;;;;;;5102859;27;46546;-70
2022/02/06 06:51:59;;;;;;;;;0.33;0.33;;;;;;;;5081918;27;45511;-70
2022/02/06 06:54:32;;;;;;;;;2.00;0.50;;;;;;;;5094074;27;45464;-70
2022/02/06 06:57:07;;;;;;;;;0.00;0.00;;;;;;;;5092889;27;45529;-70
2022/02/06 07:04:40;;;;;;;;;0.00;0.00;;;;;;;;5094846;27;45459;-70
2022/02/06 07:07:05;;;;;;;;;1.00;0.00;;;;;;;;5093541;27;46027;-70
2022/02/06 07:09:31;;;;;;;;;0.67;0.67;;;;;;;;5101184;27;45517;-70
2022/02/06 07:11:56;;;;;;;;;0.75;0.50;;;;;;;;5093654;27;45553;-70
2022/02/06 07:14:21;;;;;;;;;0.00;0.00;;;;;;;;5094429;27;45379;-70
2022/02/06 07:16:46;;;;;;;;;0.00;0.00;;;;;;;;5075012;27;47724;-70
2022/02/06 07:19:11;;;;;;;;;1.00;1.00;;;;;;;;5093800;27;45459;-70
2022/02/06 07:21:39;;;;;;;;;0.00;0.00;;;;;;;;5092165;27;45464;-69
2022/02/06 07:24:04;;;;;;;;;1.75;0.00;;;;;;;;5094642;27;45493;-69
2022/02/06 07:26:30;;;;;;;;;0.50;0.50;;;;;;;;5093834;27;45647;-70
2022/02/06 07:28:59;;;;;;;;;0.00;0.00;;;;;;;;5097246;27;45396;-70
2022/02/06 07:31:24;;;;;;;;;0.00;0.00;;;;;;;;5095995;27;45523;-70
2022/02/06 07:33:49;;;;;;;;;1.00;1.00;;;;;;;;5097617;27;49673;-69
2022/02/06 07:36:16;;;;;;;;;1.75;0.75;;;;;;;;5095428;27;46149;-70
2022/02/06 07:38:42;;;;;;;;;1.00;1.00;;;;;;;;5095602;27;45410;-70
2022/02/06 07:41:07;;;;;;;;;0.75;0.75;;;;;;;;5099282;27;45557;-69
2022/02/06 07:43:32;;;;;;;;;0.75;0.00;;;;;;;;5097808;27;45484;-70
2022/02/06 07:45:57;;;;;;;;;1.67;0.67;;;;;;;;5097019;27;45558;-70
2022/02/06 07:48:23;;;;;;;;;0.00;0.00;;;;;;;;5070158;27;45365;-70
2022/02/06 07:50:48;;;;;;;;;0.00;0.00;;;;;;;;5097513;27;45418;-70
2022/02/06 07:53:14;;;;;;;;;0.67;0.67;;;;;;;;5100051;27;45421;-69
2022/02/06 07:55:39;;;;;;;;;0.67;0.67;;;;;;;;5097276;27;46565;-70
2022/02/06 07:58:04;;;;;;;;;0.00;0.00;;;;;;;;5095600;27;46273;-70
2022/02/06 08:00:30;;;;;;;;;0.00;0.00;;;;;;;;5095541;27;45401;-70
2022/02/06 08:02:57;;;;;;;;;0.00;0.00;;;;;;;;5097072;27;45500;-70
2022/02/06 08:05:22;;;;;;;;;0.00;0.00;;;;;;;;5096711;27;45444;-70
2022/02/06 08:07:49;;;;;;;;;0.00;0.00;;;;;;;;5098365;27;45302;-69
2022/02/06 08:10:14;;;;;;;;;3.00;0.00;;;;;;;;5094305;27;45736;-70
2022/02/06 08:12:51;;;;;;;;;0.00;0.00;;;;;;;;5093806;27;45567;-69
2022/02/06 08:15:16;;;;;;;;;0.00;0.00;;;;;;;;5094583;27;45398;-70
2022/02/06 08:17:41;;;;;;;;;0.67;0.00;;;;;;;;5095039;27;45794;-70
2022/02/06 08:20:12;;;;;;;;;1.00;0.00;;;;;;;;5107127;27;45632;-70
2022/02/06 08:22:37;;;;;;;;;0.00;0.00;;;;;;;;5095923;27;45550;-70
2022/02/06 08:25:03;;;;;;;;;1.67;0.00;;;;;;;;5095823;27;47239;-70
2022/02/06 08:27:28;;;;;;;;;0.00;0.00;;;;;;;;5097560;27;45441;-70
2022/02/06 08:29:54;;;;;;;;;0.00;0.00;;;;;;;;5094010;27;45394;-70
2022/02/06 08:32:20;;;;;;;;;0.00;0.00;;;;;;;;5097319;27;45508;-70
2022/02/06 08:34:46;;;;;;;;;0.00;0.00;;;;;;;;5098083;27;45527;-70
2022/02/06 08:37:11;;;;;;;;;1.00;1.00;;;;;;;;5096312;27;45400;-69
2022/02/06 08:39:38;;;;;;;;;0.00;0.00;;;;;;;;5101854;27;45511;-69
2022/02/06 08:42:06;;;;;;;;;1.00;1.00;;;;;;;;5095447;27;45460;-69
2022/02/06 08:44:31;;;;;;;;;0.00;0.00;;;;;;;;5095902;27;45338;-70
2022/02/06 08:46:56;;;;;;;;;0.00;0.00;;;;;;;;5098147;27;45324;-70
2022/02/06 08:49:22;;;;;;;;;0.00;0.00;;;;;;;;5098245;27;45260;-69
2022/02/06 08:51:47;;;;;;;;;0.00;0.00;;;;;;;;5102776;27;46068;-70
2022/02/06 08:54:12;;;;;;;;;2.50;0.00;;;;;;;;5095100;27;46019;-70
2022/02/06 08:56:39;;;;;;;;;1.25;0.00;;;;;;;;5095952;27;45392;-69
2022/02/06 08:59:08;;;;;;;;;0.00;0.00;;;;;;;;5098154;27;45442;-70
2022/02/06 09:01:34;;;;;;;;;0.00;0.00;;;;;;;;5095626;27;45398;-70
2022/02/06 09:03:59;;;;;;;;;0.00;0.00;;;;;;;;5078375;27;45445;-70
2022/02/06 09:06:25;;;;;;;;;0.00;0.00;;;;;;;;5094666;27;45330;-70
2022/02/06 09:08:54;;;;;;;;;0.00;0.00;;;;;;;;5095920;27;45266;-69
2022/02/06 09:11:20;;;;;;;;;0.00;0.00;;;;;;;;5096744;27;45318;-70
2022/02/06 09:13:45;;;;;;;;;0.00;0.00;;;;;;;;5098187;27;46890;-70
2022/02/06 09:16:10;;;;;;;;;0.00;0.00;;;;;;;;5097779;27;45463;-70
2022/02/06 09:18:35;;;;;;;;;0.00;0.00;;;;;;;;5094223;27;45353;-70
2022/02/06 09:21:01;;;;;;;;;0.00;0.00;;;;;;;;5109090;27;45413;-70
2022/02/06 09:23:26;;;;;;;;;0.00;0.00;;;;;;;;5095424;27;46205;-70
2022/02/06 09:25:51;;;;;;;;;0.00;0.00;;;;;;;;5103939;27;45305;-70
2022/02/06 09:28:16;;;;;;;;;0.00;0.00;;;;;;;;5081775;27;45394;-69
2022/02/06 09:30:42;;;;;;;;;0.33;0.33;;;;;;;;5095874;27;45337;-70
2022/02/06 09:35:32;;;;;;;;;0.50;0.50;;;;;;;;5101703;27;45337;-70
2022/02/06 09:37:58;;;;;;;;;2.00;0.75;;;;;;;;5096833;27;45308;-69
2022/02/06 09:40:26;;;;;;;;;0.00;0.00;;;;;;;;5094495;27;45451;-69
2022/02/06 09:42:53;;;;;;;;;0.00;0.00;;;;;;;;5095118;27;45732;-70
2022/02/06 09:45:23;;;;;;;;;0.00;0.00;;;;;;;;5093261;27;45508;-70
2022/02/06 09:47:49;;;;;;;;;2.00;0.00;;;;;;;;5098225;27;45627;-70
2022/02/06 09:50:15;;;;;;;;;0.00;0.00;;;;;;;;5095758;27;45513;-70
2022/02/06 09:52:40;;;;;;;;;0.00;0.00;;;;;;;;5094259;27;46406;-69
2022/02/06 09:55:11;;;;;;;;;0.00;0.00;;;;;;;;5093165;27;45413;-69
2022/02/06 09:57:51;;;;;;;;;0.00;0.00;;;;;;;;5093619;27;45308;-70
2022/02/06 10:00:17;;;;;;;;;0.00;0.00;;;;;;;;5094147;27;45489;-70
2022/02/06 10:02:47;;;;;;;;;0.00;0.00;;;;;;;;5075634;27;48144;-70
2022/02/06 10:05:13;;;;;;;;;0.00;0.00;;;;;;;;5096040;27;45492;-70
2022/02/06 10:07:48;;;;;;;;;0.00;0.00;;;;;;;;5093885;27;45542;-69
2022/02/06 10:10:14;;;;;;;;;0.00;0.00;;;;;;;;5093288;27;45559;-70
2022/02/06 10:12:42;;;;;;;;;0.00;0.00;;;;;;;;5094738;27;45819;-70
2022/02/06 10:15:16;;;;;;;;;0.00;0.00;;;;;;;;5093013;27;45453;-70
2022/02/06 10:17:41;;;;;;;;;0.00;0.00;;;;;;;;5095068;27;45416;-70
2022/02/06 10:20:28;;;;;;;;;0.00;0.00;;;;;;;;5096787;27;45376;-70
2022/02/06 10:23:00;;;;;;;;;0.00;0.00;;;;;;;;5094763;27;45367;-70
2022/02/06 10:25:25;;;;;;;;;0.00;0.00;;;;;;;;5101945;27;45328;-70
2022/02/06 10:30:43;;;;;;;;;0.00;0.00;;;;;;;;5052952;28;45512;-70
2022/02/06 10:33:15;;;;;;;;;0.00;0.00;;;;;;;;5052975;28;46162;-70
2022/02/06 10:35:42;;;;;;;;;1.00;0.00;;;;;;;;5052123;28;45822;-69
2022/02/06 10:38:13;;;;;;;;;1.00;0.00;;;;;;;;5053125;28;45391;-70
2022/02/06 10:40:39;;;;;;;;;0.00;0.00;;;;;;;;5048750;28;45480;-69
2022/02/06 10:43:08;;;;;;;;;0.00;0.00;;;;;;;;5052317;28;46041;-70
2022/02/06 10:45:37;;;;;;;;;0.33;0.00;;;;;;;;5053107;28;45538;-70
2022/02/06 10:48:03;;;;;;;;;1.00;0.00;;;;;;;;5036944;28;45615;-70
2022/02/06 10:50:30;;;;;;;;;0.75;0.75;;;;;;;;5051208;28;45400;-70
2022/02/06 10:53:05;;;;;;;;;2.00;0.00;;;;;;;;5048525;28;46174;-70
2022/02/06 10:55:31;;;;;;;;;0.00;0.00;;;;;;;;5052344;28;45453;-69
2022/02/06 10:57:57;;;;;;;;;0.00;0.00;;;;;;;;5052465;28;45575;-70
2022/02/06 11:00:33;;;;;;;;;0.25;0.25;;;;;;;;5052654;28;45684;-70
2022/02/06 11:03:04;;;;;;;;;0.00;0.00;;;;;;;;5051298;28;46629;-70
2022/02/06 11:05:50;;;;;;;;;0.00;0.00;;;;;;;;5052440;28;45448;-69
2022/02/06 11:08:24;;;;;;;;;1.00;0.00;;;;;;;;5081182;27;45551;-71
2022/02/06 11:10:54;;;;;;;;;0.00;0.00;;;;;;;;5096127;27;45381;-69
2022/02/06 11:13:19;;;;;;;;;0.00;0.00;;;;;;;;5092221;27;45446;-69
2022/02/06 11:15:46;;;;;;;;;2.00;1.00;;;;;;;;5093386;27;45567;-69
2022/02/06 11:18:12;;;;;;;;;2.00;0.00;;;;;;;;5092176;27;45410;-71
2022/02/06 11:20:58;;;;;;;;;0.33;0.00;;;;;;;;5092241;27;45511;-70
2022/02/06 11:23:24;;;;;;;;;0.00;0.00;;;;;;;;5091746;27;45670;-70
2022/02/06 11:25:52;;;;;;;;;0.00;0.00;;;;;;;;5094447;27;45307;-70
2022/02/06 11:28:18;;;;;;;;;0.00;0.00;;;;;;;;5093692;27;45473;-70
2022/02/06 11:30:43;;;;;;;;;0.67;0.00;;;;;;;;5093658;27;45475;-70
2022/02/06 11:33:09;;;;;;;;;0.75;0.00;;;;;;;;5094332;27;45268;-69
2022/02/06 11:35:36;;;;;;;;;0.33;0.00;;;;;;;;5093307;27;45579;-69
2022/02/06 11:43:51;;;;;;;;;0.00;0.00;;;;;;;;5093064;27;45571;-70
2022/02/06 11:46:32;;;;;;;;;1.00;0.00;;;;;;;;5092660;27;45443;-69
2022/02/06 11:49:03;;;;;;;;;0.00;0.00;;;;;;;;5093773;27;45452;-69
2022/02/06 11:51:29;;;;;;;;;0.25;0.00;;;;;;;;5090650;27;45352;-70
2022/02/06 11:53:54;;;;;;;;;0.00;0.00;;;;;;;;5093212;27;46343;-70
2022/02/06 11:56:21;;;;;;;;;0.00;0.00;;;;;;;;5093876;27;45892;-70
2022/02/06 11:58:51;;;;;;;;;0.00;0.00;;;;;;;;5094318;27;45471;-71
2022/02/06 12:01:16;;;;;;;;;0.00;0.00;;;;;;;;5075653;27;45489;-69
2022/02/06 12:03:47;;;;;;;;;0.00;0.00;;;;;;;;5085178;27;45960;-70
2022/02/06 12:06:13;;;;;;;;;0.00;0.00;;;;;;;;5082146;27;45528;-69
2022/02/06 12:09:04;;;;;;;;;1.00;0.00;;;;;;;;5067350;27;45499;-69
2022/02/06 12:11:29;;;;;;;;;2.00;0.00;;;;;;;;5083348;27;45502;-70
2022/02/06 12:14:10;;;;;;;;;3.00;0.00;;;;;;;;5094271;27;46284;-69
2022/02/06 12:17:16;;;;;;;;;0.67;0.00;;;;;;;;5092406;27;45549;-68
2022/02/06 12:19:28;;;;;;;;;0.00;0.00;;;;;;;;5085625;27;45611;-69
2022/02/06 12:21:54;;;;;;;;;0.00;0.00;;;;;;;;5088429;27;45551;-68
2022/02/06 12:24:40;;;;;;;;;0.50;0.50;;;;;;;;5104000;27;45672;-69
2022/02/06 12:27:21;;;;;;;;;0.00;0.00;;;;;;;;5089015;27;45393;-69
2022/02/06 12:29:50;;;;;;;;;0.00;0.00;;;;;;;;5097002;27;45403;-69
2022/02/06 12:32:28;;;;;;;;;1.00;0.00;;;;;;;;5090323;27;45631;-69
2022/02/06 12:37:40;;;;;;;;;2.00;1.00;;;;;;;;5085156;27;45446;-69
2022/02/06 12:40:11;;;;;;;;;1.25;0.00;;;;;;;;5086428;27;45453;-70
2022/02/06 12:42:39;;;;;;;;;0.00;0.00;;;;;;;;5079906;27;45428;-67
2022/02/06 12:45:05;;;;;;;;;0.33;0.33;;;;;;;;5087289;27;45451;-67
2022/02/06 12:47:31;;;;;;;;;0.00;0.00;;;;;;;;5081980;27;45495;-68
2022/02/06 12:49:57;;;;;;;;;0.00;0.00;;;;;;;;5098029;27;45397;-68
2022/02/06 12:52:22;;;;;;;;;0.00;0.00;;;;;;;;5094223;27;45555;-68
2022/02/06 12:54:48;;;;;;;;;0.00;0.00;;;;;;;;5095301;27;46286;-67
2022/02/06 12:57:18;;;;;;;;;0.00;0.00;;;;;;;;5094395;27;45385;-68
2022/02/06 12:59:47;;;;;;;;;0.67;0.67;;;;;;;;5078502;27;45336;-68
2022/02/06 13:02:14;;;;;;;;;1.00;0.00;;;;;;;;5087584;27;45513;-67
2022/02/06 13:04:42;;;;;;;;;0.00;0.00;;;;;;;;5089791;27;46473;-67
2022/02/06 13:07:08;;;;;;;;;0.00;0.00;;;;;;;;5089864;27;45718;-68
2022/02/06 13:09:38;;;;;;;;;0.00;0.00;;;;;;;;5094352;27;45476;-68
2022/02/06 13:19:57;;;;;;;;;0.00;0.00;;;;;;;;5049533;27;45729;-69
2022/02/06 13:22:38;;;;;;;;;0.00;0.00;;;;;;;;5053600;28;45527;-68
2022/02/06 13:30:42;;;;;;;;;0.00;0.00;;;;;;;;5050482;28;45500;-69
2022/02/06 13:33:15;;;;;;;;;0.00;0.00;;;;;;;;5048945;28;45522;-69
2022/02/06 13:35:59;;;;;;;;;0.00;0.00;;;;;;;;5039405;28;46714;-69
2022/02/06 13:38:29;;;;;;;;;1.00;0.00;;;;;;;;5040837;28;45544;-72
2022/02/06 13:40:54;;;;;;;;;0.00;0.00;;;;;;;;5051517;28;45433;-70
2022/02/06 13:43:23;;;;;;;;;0.00;0.00;;;;;;;;5051362;28;45428;-71
2022/02/06 13:45:51;;;;;;;;;0.00;0.00;;;;;;;;5052694;28;46240;-71
2022/02/06 13:48:19;;;;;;;;;0.00;0.00;;;;;;;;5051084;28;45425;-71
2022/02/06 13:50:52;;;;;;;;;0.00;0.00;;;;;;;;5052545;28;45529;-71
2022/02/06 13:53:20;;;;;;;;;1.00;0.00;;;;;;;;5055272;28;45382;-71
2022/02/06 13:56:01;;;;;;;;;0.00;0.00;;;;;;;;5055709;28;45944;-70
2022/02/06 13:58:28;;;;;;;;;0.00;0.00;;;;;;;;5052569;28;45411;-71
2022/02/06 14:01:04;;;;;;;;;0.00;0.00;;;;;;;;5053319;28;45272;-70
2022/02/06 14:03:49;;;;;;;;;0.00;0.00;;;;;;;;5055950;28;45399;-70
2022/02/06 14:06:18;;;;;;;;;0.50;0.50;;;;;;;;5048304;28;46671;-70
2022/02/06 14:09:06;;;;;;;;;0.00;0.00;;;;;;;;5041574;28;45799;-71
2022/02/06 14:11:32;;;;;;;;;0.67;0.00;;;;;;;;5049338;28;45691;-70
2022/02/06 14:14:16;;;;;;;;;0.00;0.00;;;;;;;;5055502;28;45431;-71
2022/02/06 14:16:45;;;;;;;;;0.00;0.00;;;;;;;;5054124;28;46568;-71
2022/02/06 14:19:11;;;;;;;;;0.75;0.00;;;;;;;;5051356;28;45483;-71
2022/02/06 14:21:47;;;;;;;;;1.00;0.33;;;;;;;;5048312;28;45419;-71
2022/02/06 14:24:12;;;;;;;;;1.00;0.00;;;;;;;;5047910;28;45533;-69
2022/02/06 14:26:37;;;;;;;;;2.50;0.00;;;;;;;;5053525;28;45501;-70
2022/02/06 14:29:14;;;;;;;;;1.00;0.00;;;;;;;;5055226;28;45486;-69
2022/02/06 14:31:40;;;;;;;;;0.00;0.00;;;;;;;;5051023;28;45481;-69
2022/02/06 14:34:14;;;;;;;;;0.00;0.00;;;;;;;;5045314;28;45665;-69
2022/02/06 14:36:39;;;;;;;;;0.00;0.00;;;;;;;;5045794;28;47024;-68
2022/02/06 14:39:05;;;;;;;;;0.00;0.00;;;;;;;;5051812;28;45597;-68
2022/02/06 14:41:47;;;;;;;;;0.00;0.00;;;;;;;;5047496;28;45504;-69
2022/02/06 14:44:15;;;;;;;;;0.00;0.00;;;;;;;;5048935;28;45646;-68
2022/02/06 14:46:41;;;;;;;;;0.00;0.00;;;;;;;;5051315;28;45378;-69
2022/02/06 14:49:07;;;;;;;;;0.00;0.00;;;;;;;;5043869;28;45464;-68
2022/02/06 14:51:37;;;;;;;;;0.00;0.00;;;;;;;;5047642;28;45383;-69
2022/02/06 14:54:05;;;;;;;;;2.00;0.00;;;;;;;;5048783;28;45485;-68
2022/02/06 14:56:31;;;;;;;;;1.00;0.00;;;;;;;;5050931;28;46792;-70
2022/02/06 14:58:57;;;;;;;;;0.25;0.00;;;;;;;;5042690;28;45417;-70
2022/02/06 15:01:22;;;;;;;;;0.00;0.00;;;;;;;;5048065;28;45445;-70
2022/02/06 15:03:47;;;;;;;;;2.00;0.00;;;;;;;;5051993;28;45566;-70
2022/02/06 15:06:12;;;;;;;;;0.33;0.00;;;;;;;;5047057;28;46193;-70
2022/02/06 15:08:38;;;;;;;;;0.67;0.67;;;;;;;;5047237;28;45395;-70
2022/02/06 15:11:03;;;;;;;;;0.25;0.00;;;;;;;;5039387;28;45485;-70
2022/02/06 15:13:32;;;;;;;;;0.00;0.00;;;;;;;;5050617;28;45408;-69
2022/02/06 15:16:03;;;;;;;;;1.67;0.00;;;;;;;;5050686;28;45477;-67
2022/02/06 15:21:04;;;;;;;;;1.00;0.00;;;;;;;;5048622;28;45435;-68
2022/02/06 15:23:29;;;;;;;;;0.00;0.00;;;;;;;;5049130;28;45469;-67
2022/02/06 15:25:55;;;;;;;;;0.00;0.00;;;;;;;;5046316;28;45287;-67
2022/02/06 15:28:20;;;;;;;;;0.00;0.00;;;;;;;;5044471;28;45506;-67
2022/02/06 15:30:46;;;;;;;;;0.00;0.00;;;;;;;;5036400;28;45522;-67
2022/02/06 15:33:11;;;;;;;;;0.00;0.00;;;;;;;;5036751;28;45508;-69
2022/02/06 15:35:37;;;;;;;;;2.00;0.00;;;;;;;;5034595;28;45630;-67
2022/02/06 15:38:03;;;;;;;;;0.50;0.50;;;;;;;;5042971;28;45347;-68
2022/02/06 15:40:30;;;;;;;;;0.25;0.25;;;;;;;;5036809;28;45551;-69
2022/02/06 15:42:55;;;;;;;;;0.00;0.00;;;;;;;;5036712;28;45351;-69
2022/02/06 15:45:20;;;;;;;;;0.00;0.00;;;;;;;;5047402;28;45932;-70
2022/02/06 15:47:45;;;;;;;;;0.50;0.50;;;;;;;;5051524;28;45591;-70
2022/02/06 15:50:12;;;;;;;;;0.00;0.00;;;;;;;;5058344;28;45450;-70
2022/02/06 15:52:37;;;;;;;;;0.00;0.00;;;;;;;;5056564;28;45665;-69
2022/02/06 15:55:03;;;;;;;;;0.50;0.00;;;;;;;;5055832;28;45674;-69
2022/02/06 15:57:28;;;;;;;;;1.00;0.00;;;;;;;;5053870;28;45466;-69
2022/02/06 15:59:53;;;;;;;;;1.00;0.00;;;;;;;;5054849;28;45442;-69
2022/02/06 16:02:18;;;;;;;;;0.00;0.00;;;;;;;;5056776;28;45415;-69
2022/02/06 16:04:44;;;;;;;;;0.00;0.00;;;;;;;;5055519;28;45473;-69
2022/02/06 16:07:09;;;;;;;;;1.00;1.00;;;;;;;;5055092;28;45264;-69
2022/02/06 16:09:35;;;;;;;;;0.00;0.00;;;;;;;;5054047;28;45441;-69
2022/02/06 16:12:06;;;;;;;;;0.00;0.00;;;;;;;;5054310;27;45452;-69
2022/02/06 16:14:31;;;;;;;;;0.00;0.00;;;;;;;;5056008;27;45504;-69
2022/02/06 16:16:57;;;;;;;;;0.00;0.00;;;;;;;;5053119;28;45674;-68
2022/02/06 16:19:22;;;;;;;;;0.00;0.00;;;;;;;;5046736;28;45524;-69
2022/02/06 16:21:47;;;;;;;;;2.00;0.00;;;;;;;;5053424;28;45485;-68
2022/02/06 16:24:12;;;;;;;;;0.00;0.00;;;;;;;;5053847;28;45831;-68
2022/02/06 16:26:37;;;;;;;;;1.50;0.00;;;;;;;;5054733;28;45589;-68
2022/02/06 16:29:03;;;;;;;;;0.00;0.00;;;;;;;;5056556;28;45345;-68
2022/02/06 16:31:29;;;;;;;;;0.00;0.00;;;;;;;;5052802;28;45540;-68
2022/02/06 16:33:55;;;;;;;;;0.00;0.00;;;;;;;;5058153;28;46460;-68
2022/02/06 16:36:21;;;;;;;;;2.00;1.00;;;;;;;;5055284;28;45536;-68
2022/02/06 16:38:46;;;;;;;;;10.75;8.75;;;;;;;;5055363;28;45441;-67
2022/02/06 16:41:11;;;;;;;;;17.00;8.75;;;;;;;;5044529;28;45260;-68
2022/02/06 16:43:36;;;;;;;;;18.00;11.00;;;;;;;;5037885;28;45452;-68
2022/02/06 16:46:02;;;;;;;;;15.75;14.75;;;;;;;;5046123;28;45351;-69
2022/02/06 16:48:29;;;;;;;;;26.75;20.75;;;;;;;;5053716;28;45581;-69
2022/02/06 16:50:55;;;;;;;;;22.00;17.75;;;;;;;;5048716;28;45582;-69
2022/02/06 16:53:20;;;;;;;;;25.50;22.75;;;;;;;;5051701;28;45593;-69
2022/02/06 16:55:47;;;;;;;;;30.00;22.50;;;;;;;;5053027;28;45398;-69
2022/02/06 16:58:12;;;;;;;;;31.75;26.00;;;;;;;;5045375;28;45454;-69
2022/02/06 17:00:37;;;;;;;;;35.25;27.25;;;;;;;;5047479;28;45470;-69
2022/02/06 17:03:03;;;;;;;;;36.75;28.75;;;;;;;;5037089;28;46439;-68
2022/02/06 17:05:28;;;;;;;;;20.75;15.00;;;;;;;;5037663;28;45486;-69
2022/02/06 17:07:55;;;;;;;;;20.75;14.00;;;;;;;;5039293;28;45378;-68
2022/02/06 17:10:20;;;;;;;;;43.75;27.25;;;;;;;;5050144;28;45442;-67
2022/02/06 17:12:46;;;;;;;;;44.50;32.00;;;;;;;;5050820;28;45418;-67
2022/02/06 17:15:11;;;;;;;;;41.50;29.50;;;;;;;;5048955;28;45682;-67
2022/02/06 17:17:36;;;;;;;;;37.75;27.25;;;;;;;;5049547;28;45616;-67
2022/02/06 17:20:02;;;;;;;;;30.75;23.50;;;;;;;;5056157;28;45530;-68